Time;durP1;ratioP1;P1;durP2;ratioP2;P2;SDS_P1;SDS_P2;PMS_P1;PMS_P2;Temp;Humidity;BMP_temperature;BMP_pressure;BME280_temperature;BME280_humidity;BME280_pressure;Samples;Min_cycle;Max_cycle;Signal;HPM_P1;HPM_P2
2021/12/18 00:01:09;;;;;;;14.43;5.40;;;;;;;-144.19;100.00;79111.41;5010941;28;20054;-84
2021/12/18 00:03:36;;;;;;;11.17;4.80;;;;;;;-144.19;100.00;79123.22;5011004;28;20647;-86
2021/12/18 00:06:03;;;;;;;9.50;4.00;;;;;;;-144.19;100.00;79135.03;5011018;28;20555;-85
2021/12/18 00:08:30;;;;;;;12.75;4.70;;;;;;;-144.19;100.00;79140.94;5010987;28;20057;-83
2021/12/18 00:10:56;;;;;;;11.73;4.70;;;;;;;-144.19;100.00;79119.28;5010432;28;20050;-87
2021/12/18 00:13:23;;;;;;;9.97;4.53;;;;;;;-144.19;100.00;79146.84;5011221;28;20046;-85
2021/12/18 00:15:50;;;;;;;9.15;4.57;;;;;;;-144.19;100.00;79142.91;5009655;28;20523;-84
2021/12/18 00:18:17;;;;;;;7.70;3.65;;;;;;;-144.19;100.00;79156.72;5013775;28;20056;-85
2021/12/18 00:20:43;;;;;;;7.85;4.50;;;;;;;-144.19;100.00;79174.44;5015540;28;20062;-85
2021/12/18 00:23:10;;;;;;;7.32;3.47;;;;;;;-144.19;100.00;79170.50;5016101;28;20046;-86
2021/12/18 00:25:36;;;;;;;10.30;4.33;;;;;;;-144.19;100.00;79162.63;5014854;28;20061;-86
2021/12/18 00:28:03;;;;;;;7.80;4.03;;;;;;;-144.19;100.00;79154.72;5013127;28;20050;-86
2021/12/18 00:30:30;;;;;;;7.38;3.95;;;;;;;-144.19;100.00;79146.84;5014954;28;20369;-85
2021/12/18 00:32:56;;;;;;;;;;;;;;;-144.19;100.00;79127.16;5014664;28;20046;-86
2021/12/18 00:35:23;;;;;;;8.32;3.20;;;;;;;-144.19;100.00;79190.19;5015325;28;19929;-85
2021/12/18 00:37:49;;;;;;;7.28;2.92;;;;;;;-144.19;100.00;79180.34;5014046;28;20046;-89
2021/12/18 00:40:23;;;;;;;7.33;2.73;;;;;;;-144.19;100.00;79198.06;5014285;28;20054;-86
2021/12/18 00:43:02;;;;;;;5.97;2.65;;;;;;;-144.19;100.00;79207.91;5013942;28;20054;-86
2021/12/18 00:45:29;;;;;;;4.90;2.45;;;;;;;-144.19;100.00;79198.06;5013742;28;20058;-85
2021/12/18 00:47:56;;;;;;;8.02;2.90;;;;;;;-144.19;100.00;79203.97;5013509;28;20049;-87
2021/12/18 00:50:27;;;;;;;6.90;2.65;;;;;;;-144.19;100.00;79200.03;5015101;28;20064;-84
2021/12/18 00:52:53;;;;;;;5.32;2.35;;;;;;;-144.19;100.00;79209.88;5013848;28;20049;-85
2021/12/18 00:55:20;;;;;;;6.75;2.80;;;;;;;-144.19;100.00;79205.94;5013585;28;20532;-85
2021/12/18 00:57:49;;;;;;;5.68;2.40;;;;;;;-144.19;100.00;79217.75;5012868;28;20065;-84
2021/12/18 01:00:22;;;;;;;4.97;2.20;;;;;;;-144.19;100.00;79180.34;5014576;28;20516;-88
2021/12/18 01:02:52;;;;;;;4.20;1.95;;;;;;;-144.19;100.00;79202.00;5014638;28;20061;-88
2021/12/18 01:05:19;;;;;;;5.00;1.75;;;;;;;-144.19;100.00;79190.19;5014898;28;20053;-87
2021/12/18 01:07:45;;;;;;;4.63;2.13;;;;;;;-144.19;100.00;79192.16;5014265;28;20396;-82
2021/12/18 01:10:37;;;;;;;7.13;2.23;;;;;;;-144.19;100.00;79200.03;5013414;28;20054;-84
2021/12/18 01:13:00;;;;;;;6.45;2.25;;;;;;;-144.19;100.00;79215.78;5014130;28;20054;-86
2021/12/18 01:15:35;;;;;;;4.18;2.00;;;;;;;-144.19;100.00;79200.03;5013400;28;20064;-87
2021/12/18 01:23:34;;;;;;;5.65;2.20;;;;;;;-144.19;100.00;79202.00;5014185;28;20046;-86
2021/12/18 01:26:03;;;;;;;;;;;;;;;-144.19;100.00;79213.81;5012516;28;20374;-87
2021/12/18 01:28:31;;;;;;;6.78;2.30;;;;;;;-144.19;100.00;79223.69;5012689;28;19927;-86
2021/12/18 01:30:58;;;;;;;4.35;2.05;;;;;;;-144.19;100.00;79225.66;5012140;28;20046;-87
2021/12/18 01:33:24;;;;;;;5.63;2.40;;;;;;;-144.19;100.00;79231.56;5013835;28;20042;-84
2021/12/18 01:35:52;;;;;;;5.07;2.17;;;;;;;-144.19;100.00;79217.75;5012554;28;20585;-85
2021/12/18 01:38:21;;;;;;;5.85;1.90;;;;;;;-144.19;100.00;79219.72;5012296;28;20053;-86
2021/12/18 01:40:48;;;;;;;7.75;2.97;;;;;;;-144.19;100.00;79225.66;5014347;28;20663;-86
2021/12/18 01:46:33;;;;;;;4.95;2.17;;;;;;;-144.19;100.00;79221.72;5013372;28;19928;-84
2021/12/18 01:51:48;;;;;;;6.93;2.53;;;;;;;-144.19;100.00;79233.53;5013908;28;20050;-84
2021/12/18 01:54:15;;;;;;;5.88;2.08;;;;;;;-144.19;100.00;79221.72;5013392;28;20511;-83
2021/12/18 01:56:41;;;;;;;8.00;2.75;;;;;;;-144.19;100.00;79194.13;5013257;28;20500;-87
2021/12/18 01:59:08;;;;;;;6.82;2.80;;;;;;;-144.19;100.00;79209.88;5013449;28;20057;-88
2021/12/18 02:01:34;;;;;;;4.80;2.43;;;;;;;-144.19;100.00;79245.34;5014556;28;20045;-87
2021/12/18 02:04:01;;;;;;;8.17;2.47;;;;;;;-144.19;100.00;79251.25;5012849;28;20513;-85
2021/12/18 02:06:28;;;;;;;5.70;2.53;;;;;;;-144.19;100.00;79265.03;5012545;28;20050;-87
2021/12/18 02:08:54;;;;;;;4.97;2.03;;;;;;;-144.19;100.00;79243.38;5012670;28;20045;-87
2021/12/18 02:11:33;;;;;;;5.73;2.27;;;;;;;-144.19;100.00;79270.94;5011937;28;20054;-86
2021/12/18 02:19:51;;;;;;;5.72;1.98;;;;;;;-144.19;100.00;79249.28;5013986;28;20053;-87
2021/12/18 02:22:20;;;;;;;6.53;2.70;;;;;;;-144.19;100.00;79267.00;5013859;28;20416;-86
2021/12/18 02:24:47;;;;;;;7.63;2.47;;;;;;;-144.19;100.00;79274.88;5012740;28;20060;-88
2021/12/18 02:27:13;;;;;;;5.72;1.90;;;;;;;-144.19;100.00;79268.97;5012091;28;20068;-85
2021/12/18 02:29:41;;;;;;;7.15;2.17;;;;;;;-144.19;100.00;79263.06;5013534;28;20050;-88
2021/12/18 02:32:09;;;;;;;6.95;2.60;;;;;;;-144.19;100.00;79261.09;5012292;28;20053;-83
2021/12/18 02:34:38;;;;;;;6.20;2.00;;;;;;;-144.19;100.00;79249.28;5012319;28;20504;-86
2021/12/18 02:37:08;;;;;;;5.28;2.20;;;;;;;-144.19;100.00;79261.09;5011654;28;20056;-90
2021/12/18 02:40:51;;;;;;;5.93;2.13;;;;;;;-144.19;100.00;79267.00;5012664;28;20056;-88
2021/12/18 02:42:32;;;;;;;5.18;2.25;;;;;;;-144.19;100.00;79249.28;5012743;28;20053;-86
2021/12/18 02:44:59;;;;;;;7.28;2.13;;;;;;;-144.19;100.00;79245.34;5011674;28;20050;-88
2021/12/18 02:47:25;;;;;;;6.43;2.33;;;;;;;-144.19;100.00;79249.28;5012797;28;20049;-85
2021/12/18 02:49:52;;;;;;;6.70;2.73;;;;;;;-144.19;100.00;79237.47;5012616;28;20050;-87
2021/12/18 02:52:20;;;;;;;6.13;2.40;;;;;;;-144.19;100.00;79229.59;5011625;28;20809;-84
2021/12/18 02:54:46;;;;;;;5.95;2.30;;;;;;;-144.19;100.00;79209.88;5011299;28;20050;-86
2021/12/18 02:57:13;;;;;;;6.37;3.03;;;;;;;-144.19;100.00;79227.63;5011096;28;20050;-84
2021/12/18 02:59:51;;;;;;;7.18;2.50;;;;;;;-144.19;100.00;79211.84;5012146;28;20049;-86
2021/12/18 03:02:19;;;;;;;5.60;2.40;;;;;;;-144.19;100.00;79221.72;5011070;28;20092;-88
2021/12/18 03:04:51;;;;;;;7.40;2.35;;;;;;;-144.19;100.00;79229.59;5011869;28;20049;-89
2021/12/18 03:07:21;;;;;;;6.25;2.38;;;;;;;-144.19;100.00;79235.50;5010608;28;20136;-88
2021/12/18 03:19:00;;;;;;;6.00;2.10;;;;;;;-144.19;100.00;79229.59;5013242;28;20405;-86
2021/12/18 03:23:35;;;;;;;6.95;2.45;;;;;;;-144.19;100.00;79229.59;5012479;28;20057;-86
2021/12/18 03:26:02;;;;;;;6.43;2.13;;;;;;;-144.19;100.00;79209.88;5011368;28;20415;-86
2021/12/18 03:28:29;;;;;;;6.55;2.60;;;;;;;-144.19;100.00;79198.06;5011174;28;20050;-90
2021/12/18 03:30:55;;;;;;;;;;;;;;;-144.19;100.00;79205.94;5012186;28;20057;-86
2021/12/18 03:33:26;;;;;;;6.15;2.53;;;;;;;-144.19;100.00;79202.00;5010760;28;20276;-86
2021/12/18 03:35:53;;;;;;;9.48;2.92;;;;;;;-144.19;100.00;79190.19;5010678;28;20540;-88
2021/12/18 03:38:19;;;;;;;6.28;2.60;;;;;;;-144.19;100.00;79225.66;5012228;28;20046;-86
2021/12/18 03:40:46;;;;;;;5.03;2.05;;;;;;;-144.19;100.00;79251.25;5011031;28;20427;-86
2021/12/18 03:43:12;;;;;;;7.93;2.53;;;;;;;-144.19;100.00;79249.28;5010669;28;20055;-87
2021/12/18 03:45:39;;;;;;;3.33;1.97;;;;;;;-144.19;100.00;79233.53;5012598;28;20054;-89
2021/12/18 03:48:05;;;;;;;5.23;2.40;;;;;;;-144.19;100.00;79237.47;5011822;28;20669;-83
2021/12/18 03:50:32;;;;;;;6.20;2.25;;;;;;;-144.19;100.00;79239.44;5011219;28;20448;-87
2021/12/18 03:52:59;;;;;;;7.38;2.42;;;;;;;-144.19;100.00;79253.22;5010169;28;20038;-86
2021/12/18 03:55:26;;;;;;;5.55;2.00;;;;;;;-144.19;100.00;79276.84;5010377;28;20050;-84
2021/12/18 03:57:53;;;;;;;;;;;;;;;-144.19;100.00;79290.66;5011710;28;20088;-87
2021/12/18 04:00:19;;;;;;;4.72;1.40;;;;;;;-144.19;100.00;79288.69;5010773;28;19921;-84
2021/12/18 04:02:46;;;;;;;4.63;1.87;;;;;;;-144.19;100.00;79326.09;5012218;28;20056;-85
2021/12/18 04:05:13;;;;;;;4.10;1.47;;;;;;;-144.19;100.00;79316.25;5012162;28;20081;-86
2021/12/18 04:07:42;;;;;;;3.67;1.70;;;;;;;-144.19;100.00;79326.09;5010165;28;20072;-87
2021/12/18 04:10:11;;;;;;;3.22;1.70;;;;;;;-144.19;100.00;79310.34;5010032;28;20050;-88
2021/12/18 04:12:38;;;;;;;5.30;2.05;;;;;;;-144.19;100.00;79300.50;5012496;28;20054;-85
2021/12/18 04:15:05;;;;;;;5.53;2.10;;;;;;;-144.19;100.00;79288.69;5010851;28;20064;-85
2021/12/18 04:17:31;;;;;;;5.68;2.20;;;;;;;-144.19;100.00;79290.66;5010667;28;20440;-85
2021/12/18 04:19:58;;;;;;;4.68;2.05;;;;;;;-144.19;100.00;79300.50;5010101;28;20108;-84
2021/12/18 04:22:25;;;;;;;4.95;2.22;;;;;;;-144.19;100.00;79310.34;5011369;28;20500;-85
2021/12/18 04:24:51;;;;;;;5.10;1.80;;;;;;;-144.19;100.00;79300.50;5011706;28;20050;-88
2021/12/18 04:27:17;;;;;;;5.23;2.10;;;;;;;-144.19;100.00;79292.63;5010116;28;20057;-88
2021/12/18 04:29:44;;;;;;;5.43;2.05;;;;;;;-144.19;100.00;79294.59;5011411;28;20049;-88
2021/12/18 04:32:10;;;;;;;4.03;2.17;;;;;;;-144.19;100.00;79316.25;5011630;28;20069;-85
2021/12/18 04:34:37;;;;;;;5.13;2.10;;;;;;;-144.19;100.00;79292.63;5011317;28;20049;-83
2021/12/18 04:37:03;;;;;;;4.88;2.05;;;;;;;-144.19;100.00;79304.44;5011144;28;20285;-87
2021/12/18 04:39:29;;;;;;;6.15;1.95;;;;;;;-144.19;100.00;79292.63;5010016;28;20054;-87
2021/12/18 04:41:58;;;;;;;5.00;2.20;;;;;;;-144.19;100.00;79302.47;5011654;28;20050;-88
2021/12/18 04:44:25;;;;;;;5.07;2.05;;;;;;;-144.19;100.00;79310.34;5011153;28;20084;-91
2021/12/18 04:46:53;;;;;;;3.90;1.60;;;;;;;-144.19;100.00;79328.06;5012308;28;20058;-88
2021/12/18 04:49:19;;;;;;;6.43;2.25;;;;;;;-144.19;100.00;79330.03;5011721;28;20057;-88
2021/12/18 04:51:46;;;;;;;4.40;1.73;;;;;;;-144.19;100.00;79324.13;5012492;28;20050;-89
2021/12/18 04:54:12;;;;;;;6.00;2.20;;;;;;;-144.19;100.00;79326.09;5012091;28;20044;-88
2021/12/18 04:56:39;;;;;;;4.22;1.42;;;;;;;-144.19;100.00;79322.16;5012294;28;20058;-89
2021/12/18 04:59:06;;;;;;;3.57;1.83;;;;;;;-144.19;100.00;79304.44;5011780;28;20054;-87
2021/12/18 05:01:38;;;;;;;5.43;1.60;;;;;;;-144.19;100.00;79304.44;5011424;28;20057;-89
2021/12/18 05:04:09;;;;;;;7.30;2.10;;;;;;;-144.19;100.00;79306.41;5013535;28;20049;-88
2021/12/18 05:06:39;;;;;;;4.88;1.70;;;;;;;-144.19;100.00;79314.28;5014865;28;20057;-88
2021/12/18 05:09:05;;;;;;;4.22;1.60;;;;;;;-144.19;100.00;79328.06;5015212;28;20420;-87
2021/12/18 05:11:36;;;;;;;5.72;1.55;;;;;;;-144.19;100.00;79335.94;5014810;28;20045;-88
2021/12/18 05:14:03;;;;;;;4.53;1.70;;;;;;;-144.19;100.00;79347.78;5015329;28;20050;-89
2021/12/18 05:16:29;;;;;;;5.50;1.90;;;;;;;-144.19;100.00;79343.81;5017889;28;20080;-91
2021/12/18 05:18:56;;;;;;;4.82;1.90;;;;;;;-144.19;100.00;79359.59;5016220;28;20092;-88
2021/12/18 05:21:22;;;;;;;4.07;1.90;;;;;;;-144.19;100.00;79335.94;5014819;28;20133;-87
2021/12/18 05:23:49;;;;;;;5.20;2.58;;;;;;;-144.19;100.00;79335.94;5015434;28;20285;-87
2021/12/18 05:26:16;;;;;;;5.78;2.30;;;;;;;-144.19;100.00;79351.72;5013606;28;20054;-85
2021/12/18 05:28:42;;;;;;;4.93;1.88;;;;;;;-144.19;100.00;79339.88;5014794;28;20056;-88
2021/12/18 05:31:12;;;;;;;4.80;2.13;;;;;;;-144.19;100.00;79332.00;5013284;28;20057;-86
2021/12/18 05:33:39;;;;;;;8.55;2.53;;;;;;;-144.19;100.00;79328.06;5014550;28;20065;-89
2021/12/18 05:36:24;;;;;;;7.65;2.42;;;;;;;-144.19;100.00;79326.09;5013901;28;20053;-87
2021/12/18 05:38:51;;;;;;;6.53;2.70;;;;;;;-144.19;100.00;79332.00;5013423;28;20046;-84
2021/12/18 05:41:17;;;;;;;6.63;2.47;;;;;;;-144.19;100.00;79333.97;5013442;28;20054;-86
2021/12/18 05:43:43;;;;;;;6.63;2.53;;;;;;;-144.19;100.00;79316.25;5013118;28;20058;-88
2021/12/18 05:46:10;;;;;;;6.93;2.40;;;;;;;-144.19;100.00;79328.06;5012891;28;20515;-88
2021/12/18 05:48:36;;;;;;;7.73;3.17;;;;;;;-144.19;100.00;79320.19;5013145;28;20049;-88
2021/12/18 05:51:05;;;;;;;9.67;3.37;;;;;;;-144.19;100.00;79320.19;5013767;28;20049;-87
2021/12/18 05:53:32;;;;;;;7.18;3.05;;;;;;;-144.19;100.00;79322.16;5012938;28;20056;-88
2021/12/18 05:55:59;;;;;;;8.13;2.80;;;;;;;-144.19;100.00;79335.94;5013714;28;20053;-85
2021/12/18 05:58:25;;;;;;;8.67;3.20;;;;;;;-144.19;100.00;79300.50;5013321;28;20050;-87
2021/12/18 06:00:51;;;;;;;7.43;3.33;;;;;;;-144.19;100.00;79326.09;5013207;28;20054;-88
2021/12/18 06:03:18;;;;;;;7.90;2.90;;;;;;;-144.19;100.00;79335.94;5012881;28;20048;-88
2021/12/18 06:05:44;;;;;;;8.77;3.30;;;;;;;-144.19;100.00;79316.25;5011147;28;20419;-82
2021/12/18 06:08:12;;;;;;;7.53;3.10;;;;;;;-144.19;100.00;79333.97;5007605;28;20133;-84
2021/12/18 06:10:38;;;;;;;10.15;3.92;;;;;;;-144.19;100.00;79335.94;5012301;28;20054;-87
2021/12/18 06:13:05;;;;;;;7.80;3.80;;;;;;;-144.19;100.00;79316.25;5012082;28;20049;-86
2021/12/18 06:15:32;;;;;;;11.43;4.05;;;;;;;-144.19;100.00;79314.28;5012066;28;20519;-84
2021/12/18 06:17:59;;;;;;;;;;;;;;;-144.19;100.00;79314.28;5013441;28;20050;-88
2021/12/18 06:20:28;;;;;;;10.88;4.40;;;;;;;-144.19;100.00;79343.81;5012375;28;20311;-86
2021/12/18 06:22:55;;;;;;;11.77;5.15;;;;;;;-144.19;100.00;79345.81;5012906;28;20046;-86
2021/12/18 06:25:22;;;;;;;;;;;;;;;-144.19;100.00;79357.63;5011032;28;20061;-84
2021/12/18 06:27:48;;;;;;;12.30;5.55;;;;;;;-144.19;100.00;79351.72;5010474;28;19922;-87
2021/12/18 06:30:18;;;;;;;11.32;5.82;;;;;;;-144.19;100.00;79359.59;5012533;28;20054;-87
2021/12/18 06:32:44;;;;;;;12.75;5.05;;;;;;;-144.19;100.00;79332.00;5012526;28;20423;-87
2021/12/18 06:35:11;;;;;;;10.82;5.30;;;;;;;-144.19;100.00;79363.53;5011609;28;20049;-87
2021/12/18 06:37:37;;;;;;;13.85;5.53;;;;;;;-144.19;100.00;79351.72;5010494;28;20061;-88
2021/12/18 06:40:05;;;;;;;13.00;5.43;;;;;;;-144.19;100.00;79351.72;5012778;28;20049;-88
2021/12/18 06:42:36;;;;;;;11.60;5.30;;;;;;;-144.19;100.00;79359.59;5010379;28;20472;-85
2021/12/18 06:45:03;;;;;;;13.43;6.05;;;;;;;-144.19;100.00;79357.63;5011217;28;20492;-87
2021/12/18 06:47:30;;;;;;;12.80;6.10;;;;;;;-144.19;100.00;79351.72;5010506;28;20136;-87
2021/12/18 06:49:56;;;;;;;12.40;5.57;;;;;;;-144.19;100.00;79351.72;5011493;28;20060;-84
2021/12/18 06:52:22;;;;;;;11.00;5.70;;;;;;;-144.19;100.00;79328.06;5011659;28;20528;-85
2021/12/18 06:54:49;;;;;;;13.70;5.43;;;;;;;-144.19;100.00;79330.03;5012107;28;20057;-87
2021/12/18 06:57:15;;;;;;;13.77;6.17;;;;;;;-144.19;100.00;79330.03;5011885;28;20053;-86
2021/12/18 06:59:42;;;;;;;15.13;6.17;;;;;;;-144.19;100.00;79339.88;5010377;28;20060;-88
2021/12/18 07:02:08;;;;;;;13.63;6.10;;;;;;;-144.19;100.00;79318.22;5010655;28;20284;-87
2021/12/18 07:04:37;;;;;;;13.80;6.93;;;;;;;-144.19;100.00;79322.16;5015452;28;20057;-88
2021/12/18 07:07:03;;;;;;;13.70;6.55;;;;;;;-144.19;100.00;79316.25;5010775;28;20050;-85
2021/12/18 07:09:30;;;;;;;12.90;5.85;;;;;;;-144.19;100.00;79324.13;5012190;28;20065;-90
2021/12/18 07:11:56;;;;;;;13.83;6.10;;;;;;;-144.19;100.00;79308.38;5010876;28;20054;-85
2021/12/18 07:14:26;;;;;;;12.73;6.35;;;;;;;-144.19;100.00;79339.88;4998024;28;20039;-85
2021/12/18 07:16:52;;;;;;;13.70;7.10;;;;;;;-144.19;100.00;79341.84;4998690;28;20050;-87
2021/12/18 07:19:19;;;;;;;15.30;8.23;;;;;;;-144.19;100.00;79339.88;5010346;28;20567;-84
2021/12/18 07:21:45;;;;;;;16.20;6.40;;;;;;;-144.19;100.00;79335.94;5010886;28;20410;-82
2021/12/18 07:24:12;;;;;;;13.03;6.13;;;;;;;-144.19;100.00;79318.22;5009756;28;20046;-85
2021/12/18 07:26:38;;;;;;;12.17;6.57;;;;;;;-144.19;100.00;79333.97;5008723;28;20424;-85
2021/12/18 07:29:04;;;;;;;11.90;7.07;;;;;;;-144.19;100.00;79316.25;5010831;28;20063;-84
2021/12/18 07:31:31;;;;;;;13.73;6.68;;;;;;;-144.19;100.00;79308.38;5010313;28;20694;-86
2021/12/18 07:33:57;;;;;;;13.37;6.00;;;;;;;-144.19;100.00;79302.47;5011729;28;20072;-85
2021/12/18 07:36:25;;;;;;;15.63;7.90;;;;;;;-144.19;100.00;79290.66;5010003;28;20584;-87
2021/12/18 07:38:51;;;;;;;14.73;7.40;;;;;;;-144.19;100.00;79310.34;5011679;28;20056;-87
2021/12/18 07:41:17;;;;;;;18.10;7.97;;;;;;;-144.19;100.00;79308.38;5011633;28;20519;-87
2021/12/18 07:43:44;;;;;;;18.77;8.13;;;;;;;-144.19;100.00;79328.06;5012663;28;20054;-84
2021/12/18 07:46:10;;;;;;;16.30;7.18;;;;;;;-144.19;100.00;79341.84;5010423;28;20504;-84
2021/12/18 07:48:37;;;;;;;16.57;8.03;;;;;;;-144.19;100.00;79328.06;5010412;28;20497;-85
2021/12/18 07:51:03;;;;;;;13.90;6.15;;;;;;;-144.19;100.00;79324.13;5011324;28;20058;-85
2021/12/18 07:53:30;;;;;;;17.20;7.65;;;;;;;-144.19;100.00;79298.53;5010597;28;20052;-85
2021/12/18 07:55:56;;;;;;;19.42;8.43;;;;;;;-144.19;100.00;79296.56;5011382;28;20049;-83
2021/12/18 07:58:22;;;;;;;21.63;8.23;;;;;;;-144.19;100.00;79304.44;5011432;28;20444;-84
2021/12/18 08:00:49;;;;;;;17.03;8.50;;;;;;;-144.19;100.00;79292.63;5011525;28;20401;-84
2021/12/18 08:03:16;;;;;;;14.87;7.53;;;;;;;-144.19;100.00;79308.38;5013078;28;20085;-88
2021/12/18 08:05:43;;;;;;;19.30;8.13;;;;;;;-144.19;100.00;79288.69;5011899;28;20292;-84
2021/12/18 08:08:09;;;;;;;15.65;8.30;;;;;;;-144.19;100.00;79296.56;5011027;28;20045;-84
2021/12/18 08:10:35;;;;;;;21.13;9.93;;;;;;;-144.19;100.00;79300.50;5013870;28;20053;-86
2021/12/18 08:13:02;;;;;;;18.77;7.90;;;;;;;-144.19;100.00;79296.56;5010919;28;20061;-87
2021/12/18 08:15:28;;;;;;;18.35;8.02;;;;;;;-144.19;100.00;79284.75;5011194;28;20045;-83
2021/12/18 08:17:57;;;;;;;19.45;8.70;;;;;;;-144.19;100.00;79284.75;5011742;28;20053;-83
2021/12/18 08:20:26;;;;;;;15.00;6.95;;;;;;;-144.19;100.00;79276.84;5011888;28;20056;-85
2021/12/18 08:22:52;;;;;;;18.33;8.27;;;;;;;-144.19;100.00;79284.75;5010151;28;20134;-86
2021/12/18 08:25:19;;;;;;;17.87;7.97;;;;;;;-144.19;100.00;79284.75;5013198;28;20050;-86
2021/12/18 08:27:45;;;;;;;16.00;7.15;;;;;;;-144.19;100.00;79324.13;5009147;28;20061;-85
2021/12/18 08:30:12;;;;;;;14.52;6.32;;;;;;;-144.19;100.00;79302.47;5008767;28;20424;-84
2021/12/18 08:32:40;;;;;;;17.15;7.50;;;;;;;-144.19;100.00;79304.44;5011466;28;20060;-86
2021/12/18 08:35:08;;;;;;;15.15;6.30;;;;;;;-144.19;100.00;79324.13;5010090;28;20049;-86
2021/12/18 08:37:34;;;;;;;15.90;6.80;;;;;;;-144.19;100.00;79316.25;5009389;28;20056;-87
2021/12/18 08:40:01;;;;;;;15.00;7.05;;;;;;;-144.19;100.00;79294.59;5013243;28;20582;-87
2021/12/18 08:42:27;;;;;;;13.23;6.90;;;;;;;-144.19;100.00;79292.63;5014799;28;20659;-86
2021/12/18 08:44:53;;;;;;;13.90;6.27;;;;;;;-144.19;100.00;79288.69;5012665;28;20307;-85
2021/12/18 08:47:21;;;;;;;12.18;5.78;;;;;;;-144.19;100.00;79274.88;5013710;28;20415;-85
2021/12/18 08:49:47;;;;;;;13.60;5.45;;;;;;;-144.19;100.00;79278.81;5014158;28;20057;-84
2021/12/18 08:52:14;;;;;;;11.25;5.85;;;;;;;-144.19;100.00;79280.78;5013987;28;20081;-86
2021/12/18 08:54:40;;;;;;;10.77;5.60;;;;;;;-144.19;100.00;79280.78;5014614;28;20042;-87
2021/12/18 08:57:08;;;;;;;10.13;4.18;;;;;;;-144.19;100.00;79298.53;5014214;28;20081;-88
2021/12/18 08:59:36;;;;;;;11.32;4.85;;;;;;;-144.19;100.00;79308.38;5014561;28;20085;-87
2021/12/18 09:02:04;;;;;;;13.32;5.93;;;;;;;-144.19;100.00;79292.63;5014100;28;20423;-87
2021/12/18 09:04:30;;;;;;;10.73;5.00;;;;;;;-144.19;100.00;79310.34;5011025;28;20064;-84
2021/12/18 09:06:57;;;;;;;10.07;4.68;;;;;;;-144.19;100.00;79304.44;5013770;28;20050;-86
2021/12/18 09:09:23;;;;;;;11.77;5.40;;;;;;;-144.19;100.00;79274.88;5012997;28;20492;-88
2021/12/18 09:11:50;;;;;;;11.90;4.53;;;;;;;-144.19;100.00;79304.44;5013620;28;20046;-87
2021/12/18 09:14:17;;;;;;;11.73;4.88;;;;;;;-144.19;100.00;79284.75;5013470;28;20528;-85
2021/12/18 09:16:43;;;;;;;9.57;4.75;;;;;;;-144.19;100.00;79296.56;5008083;28;20061;-88
2021/12/18 09:19:10;;;;;;;11.67;5.37;;;;;;;-144.19;100.00;79276.84;5015150;28;20504;-86
2021/12/18 09:21:36;;;;;;;12.07;4.93;;;;;;;-144.19;100.00;79270.94;5014257;28;20571;-89
2021/12/18 09:24:03;;;;;;;11.00;5.60;;;;;;;-144.19;100.00;79280.78;5008398;28;20050;-81
2021/12/18 09:26:29;;;;;;;11.18;5.28;;;;;;;-144.19;100.00;79272.91;5011626;28;20057;-87
2021/12/18 09:28:56;;;;;;;12.63;4.23;;;;;;;-144.19;100.00;79267.00;5023662;28;20060;-88
2021/12/18 09:31:26;;;;;;;11.25;4.57;;;;;;;-144.19;100.00;79257.16;5032702;28;20906;-87
2021/12/18 09:33:53;;;;;;;10.98;4.25;;;;;;;-144.19;100.00;79286.72;5018366;28;20427;-84
2021/12/18 09:36:20;;;;;;;10.40;4.30;;;;;;;-144.19;100.00;79268.97;5012601;28;20061;-86
2021/12/18 09:38:46;;;;;;;6.97;3.70;;;;;;;-144.19;100.00;79280.78;5014354;28;20177;-87
2021/12/18 09:41:14;;;;;;;10.67;4.80;;;;;;;-144.19;100.00;79288.69;5022526;28;20484;-86
2021/12/18 09:43:40;;;;;;;9.70;4.13;;;;;;;-144.19;100.00;79298.53;5025277;28;20289;-88
2021/12/18 09:46:11;;;;;;;9.68;3.95;;;;;;;-144.19;100.00;79261.09;5013276;28;20045;-85
2021/12/18 09:48:40;;;;;;;10.40;3.47;;;;;;;-144.19;100.00;79257.16;5013910;28;20432;-87
2021/12/18 09:51:13;;;;;;;11.38;4.43;;;;;;;-144.19;100.00;79261.09;5010119;28;20053;-88
2021/12/18 09:53:40;;;;;;;8.43;3.95;;;;;;;-144.19;100.00;79263.06;5008223;28;20072;-85
2021/12/18 09:56:07;;;;;;;10.38;4.60;;;;;;;-144.19;100.00;79276.84;5012155;28;20049;-86
2021/12/18 09:58:34;;;;;;;9.77;4.40;;;;;;;-144.19;100.00;79261.09;5012120;28;20500;-85
2021/12/18 10:01:00;;;;;;;10.03;4.20;;;;;;;-144.19;100.00;79251.25;5012190;28;20060;-85
2021/12/18 10:03:49;;;;;;;10.10;4.60;;;;;;;-144.19;100.00;79284.75;5012078;28;20054;-86
2021/12/18 10:06:29;;;;;;;11.10;4.25;;;;;;;-144.19;100.00;79249.28;5012406;28;20046;-83
2021/12/18 10:08:55;;;;;;;11.35;4.35;;;;;;;-144.19;100.00;79245.34;5012352;28;20069;-88
2021/12/18 10:11:22;;;;;;;9.18;4.55;;;;;;;-144.19;100.00;79233.53;5008940;28;20054;-85
2021/12/18 10:14:02;;;;;;;11.87;4.90;;;;;;;-144.19;100.00;79217.75;5011951;28;20435;-84
2021/12/18 10:16:30;;;;;;;10.52;4.95;;;;;;;-144.19;100.00;79221.72;5012204;28;20046;-86
2021/12/18 10:18:58;;;;;;;12.00;5.28;;;;;;;-144.19;100.00;79221.72;5001801;28;20066;-86
2021/12/18 10:21:27;;;;;;;12.15;4.65;;;;;;;-144.19;100.00;79217.75;5009959;28;20058;-86
2021/12/18 10:24:12;;;;;;;10.88;5.20;;;;;;;-144.19;100.00;79213.81;5011757;28;20046;-85
2021/12/18 10:26:42;;;;;;;13.35;5.53;;;;;;;-144.19;100.00;79227.63;5011859;28;20503;-85
2021/12/18 10:29:36;;;;;;;9.57;4.78;;;;;;;-144.19;100.00;79229.59;5011133;28;20530;-85
2021/12/18 10:32:12;;;;;;;10.05;4.80;;;;;;;-144.19;100.00;79209.88;5017726;28;20053;-86
2021/12/18 10:34:41;;;;;;;11.95;5.00;;;;;;;-144.19;100.00;79190.19;5021381;28;20122;-87
2021/12/18 10:37:10;;;;;;;11.05;5.55;;;;;;;-144.19;100.00;79170.50;4999256;28;20420;-86
2021/12/18 10:39:44;;;;;;;11.60;5.07;;;;;;;-144.19;100.00;79198.06;5011134;28;20058;-86
2021/12/18 10:42:30;;;;;;;11.18;5.00;;;;;;;-144.19;100.00;79186.25;4999478;28;20233;-87
2021/12/18 10:45:04;;;;;;;11.90;5.25;;;;;;;-144.19;100.00;79170.50;5011342;28;20056;-86
2021/12/18 10:47:47;;;;;;;9.30;4.30;;;;;;;-144.19;100.00;79190.19;5010228;28;20061;-86
2021/12/18 10:50:42;;;;;;;9.00;4.78;;;;;;;-144.19;100.00;79154.72;5010419;28;20049;-85
2021/12/18 10:53:23;;;;;;;8.82;4.00;;;;;;;-144.19;100.00;79154.72;5007363;28;20038;-88
2021/12/18 10:56:02;;;;;;;7.47;4.03;;;;;;;-144.19;100.00;79158.69;5011646;28;20046;-86
2021/12/18 10:58:40;;;;;;;10.48;4.47;;;;;;;-144.19;100.00;79125.19;5017449;28;20076;-90
2021/12/18 11:01:13;;;;;;;8.82;4.32;;;;;;;-144.19;100.00;79156.72;5010773;28;20061;-87
2021/12/18 11:03:49;;;;;;;8.13;3.80;;;;;;;-144.19;100.00;79164.59;5010800;28;20054;-88
2021/12/18 11:06:20;;;;;;;7.70;3.90;;;;;;;-144.19;100.00;79154.72;5021809;28;20466;-85
2021/12/18 11:08:55;;;;;;;8.77;4.10;;;;;;;-144.19;100.00;79150.78;5021175;28;20590;-84
2021/12/18 11:13:38;;;;;;;10.23;4.10;;;;;;;-144.19;100.00;79154.72;5013529;28;20085;-87
2021/12/18 11:14:19;;;;;;;7.80;3.72;;;;;;;-144.19;100.00;79178.38;5003999;28;20061;-85
2021/12/18 11:16:49;;;;;;;6.72;3.70;;;;;;;-144.19;100.00;79146.84;5010716;28;20616;-89
2021/12/18 11:19:19;;;;;;;10.23;4.15;;;;;;;-144.19;100.00;79138.97;5010834;28;20054;-84
2021/12/18 11:21:50;;;;;;;8.65;4.43;;;;;;;-144.19;100.00;79135.03;5012094;28;20493;-87
2021/12/18 11:24:19;;;;;;;7.85;4.05;;;;;;;-144.19;100.00;79127.16;5011680;28;20058;-85
2021/12/18 11:26:56;;;;;;;11.48;4.85;;;;;;;-144.19;100.00;79097.63;5010920;28;20060;-86
2021/12/18 11:29:27;;;;;;;7.00;3.70;;;;;;;-144.19;100.00;79125.19;5027176;28;20072;-86
2021/12/18 11:31:55;;;;;;;8.40;4.22;;;;;;;-144.19;100.00;79121.25;5011517;28;20060;-88
2021/12/18 11:34:21;;;;;;;;;;;;;;;-144.19;100.00;79115.34;5010864;28;20072;-87
2021/12/18 11:36:49;;;;;;;7.55;4.00;;;;;;;-144.19;100.00;79125.19;5010290;28;19922;-88
2021/12/18 11:39:20;;;;;;;6.60;3.50;;;;;;;-144.19;100.00;79095.66;5010113;28;20065;-87
2021/12/18 11:41:50;;;;;;;7.97;3.97;;;;;;;-144.19;100.00;79105.50;5019632;28;20060;-87